Time;durP1;ratioP1;P1;durP2;ratioP2;P2;SDS_P1;SDS_P2;PMS_P1;PMS_P2;Temp;Humidity;BMP_temperature;BMP_pressure;BME280_temperature;BME280_humidity;BME280_pressure;Samples;Min_cycle;Max_cycle;Signal;HPM_P1;HPM_P2
2022/12/13 00:01:54;;;;;;;28.40;14.98;;;-0.80;99.90;;;;;;5053527;28;20282;-42
2022/12/13 00:04:22;;;;;;;27.80;14.57;;;-0.80;99.90;;;;;;5053561;28;20167;-42
2022/12/13 00:06:48;;;;;;;31.15;15.38;;;-0.80;99.90;;;;;;5053430;28;20249;-42
2022/12/13 00:09:15;;;;;;;30.50;15.23;;;-0.80;99.90;;;;;;5053572;28;20170;-42
2022/12/13 00:11:42;;;;;;;27.33;14.63;;;-0.80;99.90;;;;;;5053377;28;20498;-42
2022/12/13 00:14:08;;;;;;;34.10;16.25;;;-0.80;99.90;;;;;;5053374;28;20173;-42
2022/12/13 00:16:33;;;;;;;26.87;14.80;;;-0.80;99.90;;;;;;5053269;28;20186;-42
2022/12/13 00:18:59;;;;;;;25.45;14.85;;;-0.80;99.90;;;;;;5053741;28;20193;-42
2022/12/13 00:21:28;;;;;;;26.07;14.73;;;-0.80;99.90;;;;;;5053183;28;20178;-42
2022/12/13 00:23:54;;;;;;;27.38;13.73;;;-0.80;99.90;;;;;;5053164;28;20726;-44
2022/12/13 00:26:25;;;;;;;27.75;14.95;;;-0.90;99.90;;;;;;5053276;28;20214;-42
2022/12/13 00:28:51;;;;;;;30.58;15.10;;;-0.90;99.90;;;;;;5053341;28;20227;-42
2022/12/13 00:31:21;;;;;;;30.40;15.33;;;-0.80;99.90;;;;;;5053215;28;20174;-43
2022/12/13 00:33:46;;;;;;;34.78;15.85;;;-0.90;99.90;;;;;;5053113;28;20234;-43
2022/12/13 00:36:12;;;;;;;26.77;14.70;;;-0.80;99.90;;;;;;5052927;28;20619;-42
2022/12/13 00:38:38;;;;;;;29.05;15.07;;;-0.90;99.90;;;;;;5053058;28;20163;-42
2022/12/13 00:41:16;;;;;;;30.25;15.20;;;-0.90;99.90;;;;;;5052788;28;20173;-42
2022/12/13 00:43:41;;;;;;;30.85;16.08;;;-0.90;99.90;;;;;;5052765;28;20166;-42
2022/12/13 00:46:16;;;;;;;27.08;13.93;;;-1.00;99.90;;;;;;5052734;28;20264;-41
2022/12/13 00:48:43;;;;;;;27.67;14.80;;;-1.00;99.90;;;;;;5052709;28;20637;-44
2022/12/13 00:51:10;;;;;;;33.40;14.80;;;-1.00;99.90;;;;;;5052644;28;20201;-42
2022/12/13 00:53:36;;;;;;;30.48;15.07;;;-1.00;99.90;;;;;;5052652;28;20163;-42
2022/12/13 00:56:02;;;;;;;26.85;13.88;;;-1.00;99.90;;;;;;5053148;28;20201;-42
2022/12/13 00:58:27;;;;;;;33.93;16.00;;;0.20;99.90;;;;;;5052835;28;20158;-43
2022/12/13 01:01:05;;;;;;;30.38;14.55;;;-1.20;99.90;;;;;;5051669;28;20549;-42
2022/12/13 01:03:31;;;;;;;27.85;15.23;;;-1.20;99.90;;;;;;5052379;28;20158;-42
2022/12/13 01:05:57;;;;;;;30.70;14.95;;;-1.30;99.90;;;;;;5052320;28;20198;-43
2022/12/13 01:08:22;;;;;;;29.85;15.43;;;-1.30;99.90;;;;;;5052306;28;20169;-42
2022/12/13 01:10:48;;;;;;;28.10;15.25;;;-1.40;99.90;;;;;;5052271;28;20241;-42
2022/12/13 01:13:14;;;;;;;28.13;16.02;;;-1.40;99.90;;;;;;5052149;28;20194;-42
2022/12/13 01:15:43;;;;;;;30.48;15.35;;;-1.50;99.90;;;;;;5052232;28;20246;-42
2022/12/13 01:18:10;;;;;;;33.08;16.45;;;-1.40;99.90;;;;;;5052180;28;20170;-42
2022/12/13 01:20:36;;;;;;;33.20;17.05;;;-1.50;99.90;;;;;;5052164;28;20171;-42
2022/12/13 01:23:03;;;;;;;33.15;16.40;;;-1.40;99.90;;;;;;5052075;28;20228;-42
2022/12/13 01:25:28;;;;;;;32.87;16.53;;;-1.50;99.90;;;;;;5052295;28;20194;-42
2022/12/13 01:27:54;;;;;;;34.55;15.82;;;-1.40;99.90;;;;;;5051910;28;20182;-42
2022/12/13 01:30:20;;;;;;;32.33;16.03;;;-1.50;99.90;;;;;;5051856;28;20224;-42
2022/12/13 01:32:45;;;;;;;33.03;16.38;;;-1.50;99.90;;;;;;5051915;28;20169;-42
2022/12/13 01:35:12;;;;;;;33.90;17.85;;;-1.50;99.90;;;;;;5051993;28;20167;-42
2022/12/13 01:37:38;;;;;;;33.47;15.93;;;-1.50;99.90;;;;;;5052045;28;20182;-42
2022/12/13 01:40:04;;;;;;;34.70;15.52;;;-1.50;99.90;;;;;;5052105;28;20170;-42
2022/12/13 01:42:30;;;;;;;30.77;16.25;;;-1.40;99.90;;;;;;5052113;28;20173;-42
2022/12/13 01:44:55;;;;;;;32.53;16.92;;;-1.40;99.90;;;;;;5051823;28;20245;-42
2022/12/13 01:47:29;;;;;;;31.77;16.20;;;-1.40;99.90;;;;;;5051650;28;20202;-42
2022/12/13 01:49:58;;;;;;;30.53;15.97;;;-1.40;99.90;;;;;;5051602;28;20221;-42
2022/12/13 01:52:25;;;;;;;30.50;15.93;;;-1.50;99.90;;;;;;5051690;28;20173;-41
2022/12/13 01:54:54;;;;;;;39.53;17.52;;;-1.50;99.90;;;;;;5051626;28;20158;-42
2022/12/13 01:57:22;;;;;;;32.57;16.07;;;-1.50;99.90;;;;;;5051922;28;20208;-42
2022/12/13 01:59:49;;;;;;;34.53;18.30;;;-1.40;99.90;;;;;;5051582;28;20167;-42
2022/12/13 02:02:15;;;;;;;36.03;16.63;;;-1.50;99.90;;;;;;5051415;28;20214;-42
2022/12/13 02:04:57;;;;;;;37.10;17.02;;;-1.50;99.90;;;;;;5051638;28;20526;-48
2022/12/13 02:07:26;;;;;;;33.63;16.33;;;-1.40;99.90;;;;;;5051478;28;20202;-45
2022/12/13 02:09:56;;;;;;;35.33;17.88;;;-1.50;99.90;;;;;;5051451;28;20165;-46
2022/12/13 02:12:22;;;;;;;37.90;16.48;;;-1.40;99.90;;;;;;5051455;28;20167;-46
2022/12/13 02:14:48;;;;;;;38.22;16.73;;;-1.40;99.90;;;;;;5055270;28;20300;-42
2022/12/13 02:17:30;;;;;;;30.90;16.60;;;-1.40;99.90;;;;;;5055541;28;20245;-42
2022/12/13 02:19:56;;;;;;;37.37;16.83;;;-1.50;99.90;;;;;;5055431;28;20522;-43
2022/12/13 02:22:50;;;;;;;38.15;17.77;;;-1.40;99.90;;;;;;5055691;28;20170;-41
2022/12/13 02:25:49;;;;;;;36.77;17.93;;;-1.50;99.90;;;;;;5055428;28;20249;-43
2022/12/13 02:28:40;;;;;;;41.53;18.53;;;-1.50;99.90;;;;;;5055468;28;20174;-42
2022/12/13 02:31:12;;;;;;;32.58;17.67;;;-1.40;99.90;;;;;;5055321;28;20167;-41
2022/12/13 02:34:09;;;;;;;37.27;18.10;;;-1.40;99.90;;;;;;5055260;28;20205;-42
2022/12/13 02:36:48;;;;;;;36.37;17.87;;;-1.40;99.90;;;;;;5050347;28;20543;-42
2022/12/13 02:39:20;;;;;;;34.88;17.27;;;-1.40;99.90;;;;;;5055118;28;20162;-42
2022/12/13 02:41:56;;;;;;;34.73;17.17;;;-1.40;99.90;;;;;;5055165;28;20174;-42
2022/12/13 02:44:27;;;;;;;36.80;18.20;;;-1.40;99.90;;;;;;5055041;28;20159;-42
2022/12/13 02:47:01;;;;;;;40.72;19.08;;;-1.40;99.90;;;;;;5054972;28;20259;-42
2022/12/13 02:49:31;;;;;;;36.13;17.43;;;-1.50;99.90;;;;;;5055583;28;20189;-41
2022/12/13 02:51:59;;;;;;;35.80;18.63;;;-1.40;99.90;;;;;;5055226;28;20183;-42
2022/12/13 02:54:25;;;;;;;35.27;17.13;;;-1.50;99.90;;;;;;5054881;28;20166;-42
2022/12/13 02:56:58;;;;;;;35.50;16.92;;;-1.50;99.90;;;;;;5054853;28;20167;-42
2022/12/13 02:59:33;;;;;;;37.43;19.13;;;-1.50;99.90;;;;;;5054960;28;20171;-42
2022/12/13 03:02:04;;;;;;;34.00;18.42;;;-1.60;99.90;;;;;;5055189;28;20287;-42
2022/12/13 03:07:53;;;;;;;37.43;17.63;;;-1.60;99.90;;;;;;5054630;28;20200;-42
2022/12/13 03:10:25;;;;;;;38.70;17.07;;;-1.50;99.90;;;;;;5054169;28;20171;-42
2022/12/13 03:15:56;;;;;;;36.07;18.70;;;-1.60;99.90;;;;;;5054739;28;20692;-42
2022/12/13 03:18:23;;;;;;;35.47;18.77;;;-1.60;99.90;;;;;;5054479;28;20197;-42
2022/12/13 03:21:01;;;;;;;36.57;18.23;;;-1.50;99.90;;;;;;5054336;28;20174;-42
2022/12/13 03:23:28;;;;;;;35.47;18.07;;;-1.50;99.90;;;;;;5054128;28;20220;-42
2022/12/13 03:25:57;;;;;;;36.28;17.80;;;-1.60;99.90;;;;;;5053981;28;20244;-42
2022/12/13 03:28:22;;;;;;;38.60;18.47;;;-1.50;99.90;;;;;;5054840;28;20197;-41
2022/12/13 03:30:48;;;;;;;41.97;19.83;;;-1.50;99.90;;;;;;5054247;28;20193;-42
2022/12/13 03:33:14;;;;;;;34.27;16.97;;;-1.50;99.90;;;;;;5054064;28;20174;-42
2022/12/13 03:35:41;;;;;;;46.00;20.17;;;-1.50;99.90;;;;;;5054212;28;20163;-41
2022/12/13 03:38:07;;;;;;;36.13;17.77;;;-1.50;99.90;;;;;;5054035;28;20170;-42
2022/12/13 03:40:34;;;;;;;35.87;18.57;;;-1.60;99.90;;;;;;5054175;28;20171;-44
2022/12/13 03:43:00;;;;;;;36.03;19.33;;;-1.60;99.90;;;;;;5054378;28;20253;-42
2022/12/13 03:45:26;;;;;;;37.47;18.60;;;-1.60;99.90;;;;;;5052634;28;20604;-43
2022/12/13 03:47:51;;;;;;;36.77;17.43;;;-1.60;99.90;;;;;;5053876;28;20170;-42
2022/12/13 03:50:17;;;;;;;37.07;18.43;;;-1.70;99.90;;;;;;5054006;28;20175;-42
2022/12/13 03:52:43;;;;;;;37.07;17.43;;;-1.70;99.90;;;;;;5053827;28;20703;-43
2022/12/13 03:55:09;;;;;;;38.03;17.57;;;-1.70;99.90;;;;;;5053958;28;20167;-42
2022/12/13 03:57:34;;;;;;;38.27;18.27;;;-1.80;99.90;;;;;;5053706;28;20535;-42
2022/12/13 04:00:00;;;;;;;42.10;19.00;;;-1.70;99.90;;;;;;5053960;28;20252;-42
2022/12/13 04:02:26;;;;;;;38.07;16.83;;;-1.70;99.90;;;;;;5053488;28;20228;-43
2022/12/13 04:04:51;;;;;;;47.03;18.47;;;-1.90;99.90;;;;;;5053536;28;20166;-42
2022/12/13 04:07:17;;;;;;;33.70;18.73;;;-1.90;99.90;;;;;;5053412;28;20216;-42
2022/12/13 04:09:42;;;;;;;35.67;17.97;;;-1.80;99.90;;;;;;5053445;28;20249;-42
2022/12/13 04:14:52;;;;;;;40.97;18.87;;;-2.00;99.90;;;;;;5052876;28;20266;-42
2022/12/13 04:17:17;;;;;;;37.57;17.67;;;-2.00;99.90;;;;;;5053315;28;20638;-43
2022/12/13 04:19:43;;;;;;;35.03;17.67;;;-2.00;99.90;;;;;;5053383;28;20201;-43
2022/12/13 04:22:08;;;;;;;38.17;18.95;;;-2.00;99.90;;;;;;5053238;28;20510;-42
2022/12/13 04:24:34;;;;;;;40.72;17.95;;;-2.00;99.90;;;;;;5053202;28;20566;-43
2022/12/13 04:27:00;;;;;;;39.57;18.37;;;-2.00;99.90;;;;;;5053391;28;20210;-42
2022/12/13 04:29:26;;;;;;;37.23;16.50;;;-2.00;99.90;;;;;;5053283;28;20224;-43
2022/12/13 04:31:51;;;;;;;44.45;18.92;;;-2.10;99.90;;;;;;5052989;28;20174;-42
2022/12/13 04:34:17;;;;;;;35.80;18.57;;;-2.10;99.90;;;;;;5052987;28;20162;-42
2022/12/13 04:36:42;;;;;;;38.93;18.67;;;-2.10;99.90;;;;;;5052067;28;20625;-42
2022/12/13 04:39:08;;;;;;;39.83;17.03;;;-2.10;99.90;;;;;;5052905;28;20571;-41
2022/12/13 04:41:38;;;;;;;33.20;17.43;;;-2.20;99.90;;;;;;5052831;28;20252;-42
2022/12/13 04:44:05;;;;;;;37.57;17.50;;;-2.30;99.90;;;;;;5052855;28;20626;-42
2022/12/13 04:46:31;;;;;;;36.27;17.73;;;-2.30;99.90;;;;;;5052660;28;20216;-43
2022/12/13 04:48:57;;;;;;;35.17;17.10;;;-2.30;99.90;;;;;;5052628;28;20182;-42
2022/12/13 04:51:22;;;;;;;34.73;17.90;;;-2.30;99.90;;;;;;5052653;28;20581;-42
2022/12/13 04:53:48;;;;;;;33.73;17.23;;;-2.30;99.90;;;;;;5052915;28;20172;-42
2022/12/13 04:56:14;;;;;;;35.73;16.67;;;-2.40;99.90;;;;;;5052576;28;20642;-42
2022/12/13 04:58:39;;;;;;;33.90;16.90;;;-2.40;99.90;;;;;;5052496;28;20579;-42
2022/12/13 05:01:07;;;;;;;32.93;16.40;;;-2.40;99.90;;;;;;5052311;28;20640;-42
2022/12/13 05:03:33;;;;;;;36.40;17.77;;;-2.50;99.90;;;;;;5052620;28;20197;-41
2022/12/13 05:05:58;;;;;;;39.70;16.30;;;-2.50;99.90;;;;;;5052864;28;20669;-41
2022/12/13 05:08:24;;;;;;;32.87;17.27;;;-2.50;99.90;;;;;;5052190;28;20172;-41
2022/12/13 05:10:49;;;;;;;38.43;18.73;;;-2.50;99.90;;;;;;5052152;28;20175;-42
2022/12/13 05:13:15;;;;;;;36.35;18.52;;;-2.60;99.90;;;;;;5052129;28;20173;-42
2022/12/13 05:15:40;;;;;;;38.22;18.50;;;-2.60;99.90;;;;;;5052220;28;20171;-42
2022/12/13 05:18:06;;;;;;;45.27;19.67;;;-2.50;99.90;;;;;;5052415;28;20174;-41
2022/12/13 05:20:34;;;;;;;40.10;20.50;;;-2.50;99.90;;;;;;5052189;28;20216;-42
2022/12/13 05:23:00;;;;;;;43.57;20.13;;;-2.50;99.90;;;;;;5052432;28;20534;-41
2022/12/13 05:25:26;;;;;;;52.07;22.43;;;-2.50;99.90;;;;;;5051993;28;20174;-41
2022/12/13 05:27:52;;;;;;;39.43;18.17;;;-2.50;99.90;;;;;;5052064;28;20173;-42
2022/12/13 05:30:18;;;;;;;49.27;20.77;;;-2.50;99.90;;;;;;5052009;28;20715;-42
2022/12/13 05:32:44;;;;;;;42.13;20.07;;;-2.50;99.90;;;;;;5052094;28;20233;-43
2022/12/13 05:35:19;;;;;;;39.60;19.70;;;-2.50;99.90;;;;;;5052124;28;20174;-42
2022/12/13 05:37:45;;;;;;;39.90;19.50;;;-2.40;99.90;;;;;;5051899;28;20637;-42
2022/12/13 05:40:11;;;;;;;46.53;21.17;;;-2.50;99.90;;;;;;5051796;28;20181;-42
2022/12/13 05:42:38;;;;;;;44.23;20.83;;;-2.40;99.90;;;;;;5051983;28;20541;-42
2022/12/13 05:45:05;;;;;;;52.25;22.55;;;-2.40;99.90;;;;;;5052023;28;20180;-42
2022/12/13 05:47:31;;;;;;;38.67;18.67;;;-2.40;99.90;;;;;;5051532;28;20202;-42
2022/12/13 05:49:56;;;;;;;48.85;23.35;;;-2.50;99.90;;;;;;5052116;28;20207;-42
2022/12/13 05:52:22;;;;;;;47.10;22.47;;;-2.70;99.90;;;;;;5051914;28;20283;-42
2022/12/13 05:54:48;;;;;;;41.13;20.93;;;-2.60;99.90;;;;;;5051386;28;20536;-42
2022/12/13 05:57:14;;;;;;;47.23;22.50;;;-2.60;99.90;;;;;;5051733;28;20178;-42
2022/12/13 05:59:40;;;;;;;49.33;22.50;;;-2.60;99.90;;;;;;5051692;28;20174;-42
2022/12/13 06:02:05;;;;;;;46.33;21.80;;;-2.50;99.90;;;;;;5051230;28;20230;-42
2022/12/13 06:04:31;;;;;;;43.33;20.57;;;-2.60;99.90;;;;;;5051326;28;20189;-41
2022/12/13 06:06:56;;;;;;;42.50;21.40;;;-2.50;99.90;;;;;;5051938;28;20683;-42
2022/12/13 06:09:22;;;;;;;44.27;21.60;;;-2.50;99.90;;;;;;5051490;28;20655;-42
2022/12/13 06:11:48;;;;;;;43.67;20.80;;;-2.50;99.90;;;;;;5051627;28;20634;-42
2022/12/13 06:14:14;;;;;;;40.57;20.93;;;-2.50;99.90;;;;;;5051472;28;20252;-42
2022/12/13 06:16:40;;;;;;;42.87;21.80;;;-2.60;99.90;;;;;;5050093;28;20180;-42
2022/12/13 06:19:05;;;;;;;44.83;21.53;;;-2.60;99.90;;;;;;5051471;28;20170;-42
2022/12/13 06:21:34;;;;;;;42.50;20.70;;;-2.50;99.90;;;;;;5051468;28;20257;-42
2022/12/13 06:23:59;;;;;;;42.93;21.13;;;-2.50;99.90;;;;;;5051662;28;20536;-43
2022/12/13 06:26:25;;;;;;;51.03;24.17;;;-2.50;99.90;;;;;;5051514;28;20208;-44
2022/12/13 06:28:51;;;;;;;44.30;22.67;;;-2.50;99.90;;;;;;5050053;28;20650;-42
2022/12/13 06:31:17;;;;;;;49.77;22.93;;;-2.40;99.90;;;;;;5051289;28;20239;-42
2022/12/13 06:33:42;;;;;;;60.67;26.47;;;-2.40;99.90;;;;;;5051522;28;20549;-42
2022/12/13 06:36:09;;;;;;;49.17;23.03;;;-2.40;99.90;;;;;;5051290;28;20176;-42
2022/12/13 06:38:35;;;;;;;44.93;21.60;;;-2.40;99.90;;;;;;5051207;28;20180;-42
2022/12/13 06:41:12;;;;;;;51.07;23.63;;;-2.40;99.90;;;;;;5051552;28;20170;-43
2022/12/13 06:43:41;;;;;;;44.70;20.80;;;-2.40;99.90;;;;;;5051033;28;20177;-42
2022/12/13 06:46:07;;;;;;;45.43;20.07;;;-2.40;99.90;;;;;;5051339;28;20210;-43
2022/12/13 06:48:32;;;;;;;59.33;26.33;;;-2.40;99.90;;;;;;5051105;28;20170;-41
2022/12/13 06:51:02;;;;;;;42.87;22.30;;;-2.50;99.90;;;;;;5051412;28;20251;-42
2022/12/13 06:53:28;;;;;;;50.90;21.40;;;-2.40;99.90;;;;;;5051359;28;20174;-42
2022/12/13 06:55:54;;;;;;;47.60;21.70;;;-2.40;99.90;;;;;;5051276;28;20645;-43
2022/12/13 06:58:20;;;;;;;45.60;22.37;;;-2.50;99.90;;;;;;5051017;28;20182;-42
2022/12/13 07:00:45;;;;;;;57.73;25.43;;;-2.40;99.90;;;;;;5054186;28;20230;-43
2022/12/13 07:03:11;;;;;;;68.80;29.03;;;-2.50;99.90;;;;;;5054689;28;20607;-42
2022/12/13 07:05:37;;;;;;;46.87;20.93;;;-2.50;99.90;;;;;;5054573;28;20695;-42
2022/12/13 07:08:03;;;;;;;72.27;31.30;;;-2.50;99.90;;;;;;5054550;28;20220;-45
2022/12/13 07:10:30;;;;;;;44.83;21.60;;;-2.50;99.90;;;;;;5054948;28;20167;-42
2022/12/13 07:12:56;;;;;;;38.60;19.33;;;-1.20;99.90;;;;;;5054973;28;20196;-42
2022/12/13 07:15:21;;;;;;;39.73;19.73;;;-2.60;99.90;;;;;;5054425;28;20171;-42
2022/12/13 07:17:51;;;;;;;72.63;30.50;;;-2.60;99.90;;;;;;5054375;28;20212;-46
2022/12/13 07:20:17;;;;;;;40.43;18.47;;;-2.60;99.90;;;;;;5054397;28;20192;-42
2022/12/13 07:22:43;;;;;;;47.63;20.03;;;-2.60;99.90;;;;;;5054368;28;20213;-45
2022/12/13 07:25:09;;;;;;;62.97;25.27;;;-2.60;99.90;;;;;;5054558;28;20695;-47
2022/12/13 07:27:34;;;;;;;57.97;23.17;;;-2.60;99.90;;;;;;5054314;28;20553;-48
2022/12/13 07:30:01;;;;;;;60.00;25.77;;;-2.60;99.90;;;;;;5054196;28;20253;-42
2022/12/13 07:32:27;;;;;;;47.67;22.73;;;-2.60;99.90;;;;;;5054808;28;20181;-48
2022/12/13 07:34:52;;;;;;;56.57;23.27;;;-2.60;99.90;;;;;;5054110;28;20163;-43
2022/12/13 07:37:18;;;;;;;57.00;25.03;;;-2.60;99.90;;;;;;5053997;28;20173;-43
2022/12/13 07:39:44;;;;;;;50.87;21.60;;;-2.50;99.90;;;;;;5054280;28;20540;-43
2022/12/13 07:42:09;;;;;;;46.40;21.67;;;-2.60;99.90;;;;;;5054053;28;20175;-42
2022/12/13 07:44:35;;;;;;;74.10;32.23;;;-2.50;99.90;;;;;;5053992;28;20205;-42
2022/12/13 07:47:01;;;;;;;42.83;19.87;;;-2.50;99.90;;;;;;5053833;28;20209;-42
2022/12/13 07:49:26;;;;;;;41.03;19.17;;;-2.60;99.90;;;;;;5054317;28;20185;-42
2022/12/13 07:51:52;;;;;;;38.90;18.27;;;-2.60;99.90;;;;;;5054074;28;20180;-42
2022/12/13 07:54:17;;;;;;;34.27;17.37;;;-2.50;99.90;;;;;;5053763;28;20166;-47
2022/12/13 07:56:43;;;;;;;37.30;18.43;;;-2.60;99.90;;;;;;5050985;28;20569;-47
2022/12/13 07:59:09;;;;;;;41.70;18.20;;;-3.20;99.90;;;;;;5051876;28;20171;-46
2022/12/13 08:01:35;;;;;;;39.43;17.80;;;-2.60;99.90;;;;;;5051831;28;20279;-41
2022/12/13 08:04:04;;;;;;;33.37;16.23;;;-2.60;99.90;;;;;;5051784;28;20165;-45
2022/12/13 08:06:35;;;;;;;39.30;18.50;;;-2.50;99.90;;;;;;5051720;28;20206;-43
2022/12/13 08:09:01;;;;;;;46.90;21.73;;;-2.50;99.90;;;;;;5051940;28;20216;-49
2022/12/13 08:11:27;;;;;;;33.87;17.73;;;-2.50;99.90;;;;;;5051892;28;20201;-46
2022/12/13 08:13:53;;;;;;;33.50;15.70;;;-2.40;99.90;;;;;;5051568;28;20170;-48
2022/12/13 08:16:19;;;;;;;35.83;16.57;;;-2.50;99.90;;;;;;5052978;28;20525;-46
2022/12/13 08:18:46;;;;;;;32.93;16.87;;;-2.50;99.90;;;;;;5053282;28;20170;-43
2022/12/13 08:21:12;;;;;;;47.00;17.53;;;-2.40;99.90;;;;;;5053489;28;20170;-44
2022/12/13 08:23:38;;;;;;;29.17;15.33;;;-2.50;99.90;;;;;;5053187;28;20169;-43
2022/12/13 08:26:04;;;;;;;38.17;17.43;;;-2.40;99.90;;;;;;5053055;28;20557;-43
2022/12/13 08:28:31;;;;;;;31.17;14.57;;;-2.30;99.90;;;;;;5053367;28;20174;-43
2022/12/13 08:31:06;;;;;;;41.20;18.50;;;-2.30;99.90;;;;;;5053690;28;20180;-43
2022/12/13 08:33:33;;;;;;;38.33;18.13;;;-2.20;99.90;;;;;;5052068;28;20186;-42
2022/12/13 08:36:07;;;;;;;41.63;18.80;;;-2.10;99.90;;;;;;5053536;28;20249;-46
2022/12/13 08:38:33;;;;;;;40.65;18.27;;;-2.00;99.90;;;;;;5052968;28;20189;-43
2022/12/13 08:40:58;;;;;;;35.78;17.15;;;-2.10;99.90;;;;;;5053290;28;20663;-42
2022/12/13 08:43:24;;;;;;;46.45;20.75;;;-2.00;99.90;;;;;;5053058;28;20176;-42
2022/12/13 08:45:49;;;;;;;43.53;19.20;;;-2.00;99.90;;;;;;5052761;28;20540;-42
2022/12/13 08:48:15;;;;;;;38.37;17.70;;;-1.90;99.90;;;;;;5052827;28;20660;-43
2022/12/13 08:50:40;;;;;;;39.42;17.75;;;-1.90;99.90;;;;;;5052653;28;20629;-42
2022/12/13 08:53:06;;;;;;;34.90;18.20;;;-1.90;99.90;;;;;;5052813;28;20619;-42
2022/12/13 08:55:31;;;;;;;35.87;17.70;;;-1.90;99.90;;;;;;5052675;28;20174;-43
2022/12/13 08:57:57;;;;;;;35.35;16.88;;;-1.70;99.90;;;;;;5053107;28;20707;-42
2022/12/13 09:00:22;;;;;;;33.65;16.98;;;-1.70;99.90;;;;;;5052391;28;20195;-42
2022/12/13 09:02:48;;;;;;;34.55;17.63;;;-1.60;99.90;;;;;;5052465;28;20611;-42
2022/12/13 09:05:13;;;;;;;35.33;16.97;;;-1.80;99.90;;;;;;5052448;28;20170;-42
2022/12/13 09:07:42;;;;;;;29.30;15.30;;;-1.50;99.90;;;;;;5052466;28;20309;-43
2022/12/13 09:10:09;;;;;;;32.45;15.55;;;-1.50;99.90;;;;;;5052581;28;20257;-42
2022/12/13 09:12:34;;;;;;;29.00;13.43;;;-1.40;99.90;;;;;;5052143;28;20170;-42
2022/12/13 09:15:00;;;;;;;26.77;14.10;;;-1.40;99.90;;;;;;5052183;28;20166;-42
2022/12/13 09:17:25;;;;;;;28.77;14.20;;;-1.30;99.90;;;;;;5052846;28;20198;-43
2022/12/13 09:19:52;;;;;;;28.48;15.57;;;-1.30;99.90;;;;;;5052110;28;20163;-42
2022/12/13 09:22:20;;;;;;;24.92;13.48;;;-1.20;99.90;;;;;;5051872;28;20253;-42
2022/12/13 09:24:46;;;;;;;27.97;13.87;;;-1.10;99.90;;;;;;5052039;28;20205;-43
2022/12/13 09:27:12;;;;;;;27.67;14.05;;;-1.10;99.90;;;;;;5052011;28;20289;-43
2022/12/13 09:29:38;;;;;;;25.83;13.80;;;-1.30;99.90;;;;;;5052089;28;20202;-43
2022/12/13 09:32:04;;;;;;;28.23;13.73;;;-1.30;99.90;;;;;;5051861;28;20197;-42
2022/12/13 09:34:31;;;;;;;25.45;14.13;;;-1.10;99.90;;;;;;5051856;28;20163;-42
2022/12/13 09:36:57;;;;;;;28.75;14.20;;;-1.00;99.90;;;;;;5052482;28;20240;-42
2022/12/13 09:39:23;;;;;;;30.00;14.60;;;-1.00;99.90;;;;;;5051809;28;20166;-42
2022/12/13 09:41:56;;;;;;;27.10;14.55;;;-1.00;99.90;;;;;;5051789;28;20258;-43
2022/12/13 09:44:36;;;;;;;26.95;14.98;;;-0.90;99.90;;;;;;5050459;28;20261;-42
2022/12/13 09:47:09;;;;;;;24.05;13.80;;;-0.80;99.90;;;;;;5051695;28;20202;-45
2022/12/13 09:49:42;;;;;;;24.13;12.30;;;-0.70;99.90;;;;;;5051690;28;20653;-45
2022/12/13 09:52:14;;;;;;;29.58;14.30;;;-0.90;99.90;;;;;;5051640;28;20249;-42
2022/12/13 09:54:40;;;;;;;26.40;14.27;;;-0.70;99.90;;;;;;5051609;28;20166;-42
2022/12/13 09:57:17;;;;;;;27.92;14.65;;;-0.60;99.90;;;;;;5051636;28;20175;-42
2022/12/13 09:59:42;;;;;;;26.73;13.52;;;-0.70;99.90;;;;;;5051494;28;20537;-42
2022/12/13 10:02:22;;;;;;;27.55;14.00;;;-0.50;99.90;;;;;;5051424;28;20218;-43
2022/12/13 10:04:47;;;;;;;26.67;14.73;;;-0.40;99.90;;;;;;5051429;28;20179;-43
2022/12/13 10:07:23;;;;;;;32.13;14.90;;;-0.50;99.90;;;;;;5051441;28;20210;-42
2022/12/13 10:10:00;;;;;;;23.58;14.15;;;-0.50;99.90;;;;;;5051509;28;20170;-42
2022/12/13 10:12:27;;;;;;;28.45;15.13;;;-0.50;99.90;;;;;;5051890;28;20302;-42
2022/12/13 10:14:58;;;;;;;24.58;13.95;;;-0.40;99.90;;;;;;5051502;28;20178;-42
2022/12/13 10:17:27;;;;;;;28.55;14.75;;;-0.10;99.90;;;;;;5051406;28;20577;-42
2022/12/13 10:19:53;;;;;;;31.63;15.48;;;0.00;99.90;;;;;;5051389;28;20216;-43
2022/12/13 10:22:21;;;;;;;28.88;15.05;;;0.00;99.90;;;;;;5051395;28;20566;-42
2022/12/13 10:25:05;;;;;;;41.03;20.15;;;0.20;99.90;;;;;;5051298;28;20545;-42
2022/12/13 10:27:42;;;;;;;25.42;13.75;;;0.00;99.90;;;;;;5051166;28;20612;-42
2022/12/13 10:30:15;;;;;;;26.63;14.20;;;0.10;99.90;;;;;;5051200;28;20628;-42
2022/12/13 10:33:01;;;;;;;30.55;15.40;;;0.20;99.90;;;;;;5051528;28;20232;-42
2022/12/13 10:35:29;;;;;;;31.80;16.00;;;0.30;99.90;;;;;;5054808;28;20171;-42
2022/12/13 10:37:58;;;;;;;25.27;13.02;;;0.30;99.90;;;;;;5055438;28;20163;-42
2022/12/13 10:40:35;;;;;;;25.85;14.73;;;0.30;99.90;;;;;;5055010;28;20167;-42
2022/12/13 10:43:10;;;;;;;24.98;14.18;;;0.40;99.90;;;;;;5055078;28;20174;-42
2022/12/13 10:45:35;;;;;;;25.90;14.13;;;0.40;99.90;;;;;;5054977;28;20170;-42
2022/12/13 10:48:02;;;;;;;27.00;14.32;;;0.40;99.90;;;;;;5055044;28;20257;-42
2022/12/13 10:50:29;;;;;;;26.75;13.85;;;0.60;99.90;;;;;;5054418;28;20641;-42
2022/12/13 10:52:56;;;;;;;26.67;14.10;;;0.60;99.90;;;;;;5055540;28;20166;-42
2022/12/13 10:55:30;;;;;;;24.65;13.07;;;0.70;99.90;;;;;;5054802;28;20178;-42
2022/12/13 10:57:59;;;;;;;24.35;12.88;;;0.60;99.90;;;;;;5055177;28;20166;-44
2022/12/13 11:00:45;;;;;;;27.20;13.77;;;0.70;99.90;;;;;;5055264;28;20222;-44
2022/12/13 11:03:31;;;;;;;24.00;12.27;;;0.80;99.90;;;;;;5054721;28;20179;-44
2022/12/13 11:06:15;;;;;;;26.17;14.73;;;0.80;99.90;;;;;;5055050;28;20267;-46
2022/12/13 11:08:40;;;;;;;22.63;12.90;;;0.80;99.90;;;;;;5054903;28;20181;-46
2022/12/13 11:11:08;;;;;;;25.75;12.98;;;0.70;99.90;;;;;;5054596;28;20163;-45
2022/12/13 11:13:50;;;;;;;19.83;12.13;;;0.70;99.90;;;;;;5054829;28;20182;-43
2022/12/13 11:16:37;;;;;;;22.92;11.70;;;0.50;99.90;;;;;;5054500;28;20228;-44
2022/12/13 11:19:31;;;;;;;23.13;12.73;;;0.40;99.90;;;;;;5054342;28;20198;-43
2022/12/13 11:21:58;;;;;;;22.35;12.50;;;0.40;99.90;;;;;;5054871;28;20512;-42
2022/12/13 11:24:33;;;;;;;25.50;12.38;;;0.50;99.90;;;;;;5054578;28;20267;-42
2022/12/13 11:27:26;;;;;;;25.67;13.98;;;0.60;99.90;;;;;;5054576;28;20805;-42
2022/12/13 11:30:19;;;;;;;21.95;12.10;;;0.60;99.90;;;;;;5054268;28;20162;-42
2022/12/13 11:32:56;;;;;;;24.35;12.57;;;0.60;99.90;;;;;;5054237;28;20175;-42
2022/12/13 11:35:33;;;;;;;18.55;10.77;;;0.50;99.90;;;;;;5054065;28;20547;-42
2022/12/13 11:38:26;;;;;;;20.80;11.18;;;0.40;99.90;;;;;;5052991;28;20177;-42
2022/12/13 11:41:02;;;;;;;24.52;13.45;;;0.30;99.90;;;;;;5054336;28;20180;-42
2022/12/13 11:43:54;;;;;;;25.25;12.13;;;0.20;99.90;;;;;;5054270;28;20201;-46
2022/12/13 11:46:28;;;;;;;21.35;10.93;;;0.20;99.90;;;;;;5053435;28;20199;-42
2022/12/13 11:48:59;;;;;;;19.35;10.63;;;0.20;99.90;;;;;;5053811;28;20252;-43
2022/12/13 11:51:34;;;;;;;24.35;11.98;;;0.20;99.90;;;;;;5054449;28;20511;-42
2022/12/13 11:54:05;;;;;;;25.80;12.52;;;0.30;99.90;;;;;;5053730;28;20170;-42
2022/12/13 11:56:36;;;;;;;20.60;10.45;;;0.40;99.90;;;;;;5053777;28;20178;-42
2022/12/13 11:59:20;;;;;;;24.17;13.00;;;0.50;99.90;;;;;;5052357;28;20240;-43
2022/12/13 12:02:15;;;;;;;24.55;12.43;;;0.60;99.90;;;;;;5053507;28;20300;-43
2022/12/13 12:04:49;;;;;;;19.95;10.38;;;0.60;99.90;;;;;;5050551;28;20535;-44
2022/12/13 12:07:19;;;;;;;19.92;10.70;;;0.60;99.90;;;;;;5053464;28;20209;-43
2022/12/13 12:09:57;;;;;;;21.92;10.80;;;0.60;99.90;;;;;;5053457;28;20579;-46
2022/12/13 12:12:30;;;;;;;20.27;10.88;;;0.60;99.90;;;;;;5053350;28;20171;-43
2022/12/13 12:14:59;;;;;;;20.55;11.88;;;0.50;99.90;;;;;;5053785;28;20166;-43
2022/12/13 12:17:25;;;;;;;20.50;11.32;;;0.60;99.90;;;;;;5053653;28;20163;-45
2022/12/13 12:19:56;;;;;;;19.75;10.48;;;0.60;99.90;;;;;;5053624;28;20500;-43
2022/12/13 12:22:37;;;;;;;20.70;10.88;;;0.50;99.90;;;;;;5052063;28;20163;-44
2022/12/13 12:25:21;;;;;;;23.40;11.27;;;0.40;99.90;;;;;;5053243;28;20178;-43
2022/12/13 12:28:15;;;;;;;20.45;10.52;;;0.30;99.90;;;;;;5052948;28;20233;-43
2022/12/13 12:31:02;;;;;;;20.92;11.07;;;0.30;99.90;;;;;;5053123;28;20162;-43
2022/12/13 12:33:42;;;;;;;23.23;12.32;;;0.40;99.90;;;;;;5053432;28;20641;-43
2022/12/13 12:36:14;;;;;;;33.20;17.83;;;0.50;99.90;;;;;;5053211;28;20532;-44
2022/12/13 12:38:56;;;;;;;28.88;15.18;;;0.50;99.90;;;;;;5053145;28;20182;-42
2022/12/13 12:41:47;;;;;;;24.10;12.98;;;0.50;99.90;;;;;;5052813;28;20171;-43
2022/12/13 12:44:48;;;;;;;30.45;14.40;;;0.40;99.90;;;;;;5052722;28;20166;-45
2022/12/13 12:47:22;;;;;;;21.85;12.25;;;0.50;99.90;;;;;;5052745;28;20202;-46
2022/12/13 12:50:16;;;;;;;23.67;11.02;;;0.50;99.90;;;;;;5052686;28;20165;-46